Tri-State/Milton J. Ferguson Field
KHTS : rendu visible

Aérodrome :











RETROUVEZ-NOUS SUR...

 
LOGIN :

S'inscrire | Disclaimer

   EN    FR    IT 

 









Légende :    VFR   VFR Marginal   IFR   IFR Intensif   IFR Très Intensif
Visi : 
Plafond : 
>= 8 km
>= 3000ft
5 à 8 km
1000 à 3000 ft
1500m à 5 km
500 à 1000 ft
800 à 1500m
200 à 500 ft
< 800m
< 200 ft
Symboles :   Orages  Brouillard  Fortes neiges  Fortes précipitations  Vent > 20 kt






- Altitude de l'aérodrome : 828 ft
- Code IATA : HTS


KHTS - Tri-State/Milton J. Ferguson Field

DERNIER METAR :
  • 171751Z 07005KT 10SM CLR 01/M08 A3069 RMK AO2 SLP399 T00111083 10017 21039 58026

METARs EXPIRÉS :
  • 171651Z 08008KT 10SM CLR 00/M09 A3073 RMK AO2 SLP414 T00001089
  • 171551Z 04007KT 10SM CLR M01/M09 A3076 RMK AO2 SLP425 T10061094

TAF KHTS
Valide du 17 à 18h jusqu'au 18 à 18h UTC


171742Z 1718/1818 08006KT P6SM SCT250
FM180700 11005KT P6SM OVC090
FM181000 14007KT P6SM -RA OVC050
FM181500 18012G18KT P6SM -RA OVC040
FM181700 20012G18KT P6SM RA OVC030



MET'MAP, la Météo Aéronautique d'un coup d'oeil ! - Copyright ORBIFLY Décembre 2007 - Disclaimer

ORBIFLY MET'MAP TEAM :

Programmation & Développement : Alexandra Zaïnal
Sur une idée originale de : Baudouin d'Aumeries
Assistance à la programmation : Marc-Olivier Méhu
Soutien technique & logistique : Manuel Goepfert

Contact : metmap@orbifly.com




SOURCES & CREDITS :

   NOAA       Earth
Advisory